createdAt,value
2018-01-12T00:01:45.532Z,4.00
2018-01-12T00:04:13.190Z,4.10
2018-01-12T00:06:40.813Z,4.20
2018-01-12T00:09:08.437Z,4.10
2018-01-12T00:11:36.099Z,4.20
2018-01-12T00:14:03.717Z,4.20
2018-01-12T00:16:32.124Z,4.10
2018-01-12T00:18:59.737Z,4.10
2018-01-12T00:21:27.354Z,4.10
2018-01-12T00:23:55.777Z,4.10
2018-01-12T00:26:23.468Z,4.00
2018-01-12T00:28:51.110Z,4.10
2018-01-12T00:31:18.739Z,4.10
2018-01-12T00:33:46.370Z,4.20
2018-01-12T00:36:14.042Z,4.20
2018-01-12T00:38:41.675Z,4.20
2018-01-12T00:41:10.085Z,4.10
2018-01-12T00:43:38.483Z,4.10
2018-01-12T00:46:06.119Z,4.10
2018-01-12T00:48:33.766Z,4.10
2018-01-12T00:51:01.398Z,4.30
2018-01-12T00:53:29.826Z,4.30
2018-01-12T00:55:57.473Z,4.30
2018-01-12T00:58:25.193Z,4.30
2018-01-12T01:00:52.841Z,4.20
2018-01-12T01:03:20.552Z,4.20
2018-01-12T01:05:48.204Z,4.30
2018-01-12T01:08:15.820Z,4.30
2018-01-12T01:10:43.461Z,4.40
2018-01-12T01:13:11.125Z,4.40
2018-01-12T01:15:38.750Z,4.50
2018-01-12T01:18:07.174Z,4.30
2018-01-12T01:20:34.793Z,4.20
2018-01-12T01:23:02.414Z,4.20
2018-01-12T01:25:30.101Z,4.10
2018-01-12T01:27:57.718Z,4.10
2018-01-12T01:30:26.337Z,4.10
2018-01-12T01:32:54.723Z,4.20
2018-01-12T01:35:23.122Z,4.20
2018-01-12T01:37:51.537Z,4.20
2018-01-12T01:40:19.169Z,4.20
2018-01-12T01:42:46.827Z,4.30
2018-01-12T01:45:14.465Z,4.30
2018-01-12T01:47:42.092Z,4.30
2018-01-12T01:50:09.765Z,4.30
2018-01-12T01:52:37.389Z,4.20
2018-01-12T01:55:05.054Z,4.20
2018-01-12T01:57:32.699Z,4.20
2018-01-12T02:00:00.322Z,4.20
2018-01-12T02:02:27.965Z,4.10
2018-01-12T02:04:56.345Z,4.30
2018-01-12T02:07:24.801Z,4.30
2018-01-12T02:09:52.422Z,4.20
2018-01-12T02:12:20.810Z,4.30
2018-01-12T02:14:49.221Z,4.30
2018-01-12T02:17:16.845Z,4.20
2018-01-12T02:19:44.490Z,4.30
2018-01-12T02:22:12.105Z,4.30
2018-01-12T02:24:39.733Z,4.30
2018-01-12T02:27:07.407Z,4.30
2018-01-12T02:29:35.038Z,4.30
2018-01-12T02:32:03.458Z,4.30
2018-01-12T02:34:31.094Z,4.20
2018-01-12T02:36:58.723Z,4.20
2018-01-12T02:39:26.381Z,4.10
2018-01-12T02:41:54.001Z,4.00
2018-01-12T02:44:21.665Z,3.90
2018-01-12T02:46:49.286Z,4.00
2018-01-12T02:49:17.676Z,4.10
2018-01-12T02:51:46.106Z,4.20
2018-01-12T02:54:13.747Z,4.10
2018-01-12T02:56:41.418Z,4.20
2018-01-12T02:59:09.810Z,4.20
2018-01-12T03:01:38.201Z,4.20
2018-01-12T03:04:06.628Z,4.00
2018-01-12T03:06:34.253Z,4.00
2018-01-12T03:09:01.906Z,4.00
2018-01-12T03:11:29.567Z,4.00
2018-01-12T03:13:57.197Z,4.00
2018-01-12T03:16:25.639Z,4.10
2018-01-12T03:18:53.278Z,4.10
2018-01-12T03:21:20.934Z,4.10
2018-01-12T03:23:49.317Z,4.10
2018-01-12T03:26:16.946Z,4.00
2018-01-12T03:28:44.612Z,4.10
2018-01-12T03:31:12.231Z,4.00
2018-01-12T03:33:39.900Z,4.00
2018-01-12T03:36:08.305Z,3.90
2018-01-12T03:38:36.698Z,3.80
2018-01-12T03:41:05.130Z,3.80
2018-01-12T03:43:32.760Z,3.80
2018-01-12T03:46:00.418Z,3.80
2018-01-12T03:48:28.056Z,3.90
2018-01-12T03:50:55.754Z,4.00
2018-01-12T03:53:23.409Z,4.00
2018-01-12T03:55:51.023Z,4.00
2018-01-12T03:58:18.681Z,4.00
2018-01-12T04:00:46.299Z,4.00
2018-01-12T04:03:14.694Z,4.00
2018-01-12T04:05:43.106Z,4.10
2018-01-12T04:08:10.729Z,4.10
2018-01-12T04:10:38.395Z,4.20
2018-01-12T04:13:06.017Z,4.20
2018-01-12T04:15:33.653Z,4.10
2018-01-12T04:18:01.317Z,4.20
2018-01-12T04:20:28.933Z,4.20
2018-01-12T04:22:57.346Z,4.30
2018-01-12T04:25:24.967Z,4.30
2018-01-12T04:27:52.594Z,4.30
2018-01-12T04:30:20.247Z,4.30
2018-01-12T04:32:47.882Z,4.30
2018-01-12T04:35:15.540Z,4.20
2018-01-12T04:37:43.152Z,4.30
2018-01-12T04:40:10.760Z,4.20
2018-01-12T04:42:38.416Z,4.30
2018-01-12T04:45:06.803Z,4.30
2018-01-12T04:47:35.237Z,4.20
2018-01-12T04:50:02.867Z,4.20
2018-01-12T04:52:30.493Z,4.20
2018-01-12T04:54:58.147Z,4.20
2018-01-12T04:57:25.782Z,4.20
2018-01-12T04:59:54.214Z,4.20
2018-01-12T05:02:21.874Z,4.20
2018-01-12T05:04:49.490Z,4.20
2018-01-12T05:07:18.611Z,4.30
2018-01-12T05:09:46.223Z,4.30
2018-01-12T05:12:13.877Z,4.20
2018-01-12T05:14:41.599Z,4.10
2018-01-12T05:17:09.221Z,4.10
2018-01-12T05:19:36.874Z,4.10
2018-01-12T05:22:04.499Z,4.30
2018-01-12T05:24:32.166Z,4.30
2018-01-12T05:26:59.779Z,4.30
2018-01-12T05:29:27.414Z,4.20
2018-01-12T05:31:55.842Z,4.30
2018-01-12T05:34:23.458Z,4.30
2018-01-12T05:36:51.106Z,4.30
2018-01-12T05:39:18.724Z,4.30
2018-01-12T05:41:47.105Z,4.20
2018-01-12T05:44:14.751Z,4.20
2018-01-12T05:46:42.360Z,4.20
2018-01-12T05:49:10.781Z,4.40
2018-01-12T05:51:38.406Z,4.30
2018-01-12T05:54:06.028Z,4.30
2018-01-12T05:56:33.734Z,4.30
2018-01-12T05:59:01.386Z,4.40
2018-01-12T06:01:41.020Z,4.40
2018-01-12T06:04:20.265Z,4.50
2018-01-12T06:06:48.672Z,4.30
2018-01-12T06:09:16.381Z,4.20
2018-01-12T06:11:44.033Z,4.20
2018-01-12T06:14:11.662Z,4.30
2018-01-12T06:16:40.063Z,4.30
2018-01-12T06:19:08.484Z,4.30
2018-01-12T06:21:36.098Z,4.30
2018-01-12T06:24:03.746Z,4.30
2018-01-12T06:26:31.403Z,4.30
2018-01-12T06:28:59.025Z,4.30
2018-01-12T06:31:26.811Z,4.20
2018-01-12T06:33:54.424Z,4.20
2018-01-12T06:36:22.078Z,4.20
2018-01-12T06:38:50.459Z,4.20
2018-01-12T06:41:18.086Z,4.20
2018-01-12T06:43:45.749Z,4.20
2018-01-12T06:46:13.361Z,4.10
2018-01-12T06:48:41.036Z,4.20
2018-01-12T06:51:08.645Z,4.20
2018-01-12T06:53:36.273Z,4.30
2018-01-12T06:56:03.928Z,4.30
2018-01-12T06:58:31.541Z,4.30
2018-01-12T07:00:59.193Z,4.20
2018-01-12T07:03:26.818Z,4.20
2018-01-12T07:05:54.442Z,4.20
2018-01-12T07:08:22.101Z,4.10
2018-01-12T07:10:49.709Z,4.20
2018-01-12T07:13:17.352Z,4.10
2018-01-12T07:15:44.960Z,4.10
2018-01-12T07:18:12.578Z,4.10
2018-01-12T07:20:52.086Z,4.00
2018-01-12T07:23:31.601Z,4.00
2018-01-12T07:25:59.250Z,4.10
2018-01-12T07:28:27.626Z,4.10
2018-01-12T07:30:56.049Z,4.20
2018-01-12T07:33:23.670Z,4.10
2018-01-12T07:35:51.324Z,4.10
2018-01-12T07:38:18.972Z,4.20
2018-01-12T07:40:46.596Z,4.20
2018-01-12T07:43:14.246Z,4.30
2018-01-12T07:45:41.861Z,4.30
2018-01-12T07:48:10.248Z,4.30
2018-01-12T07:50:38.675Z,4.40
2018-01-12T07:53:12.044Z,4.30
2018-01-12T07:55:39.689Z,4.30
2018-01-12T07:58:07.363Z,4.40
2018-01-12T08:00:40.800Z,4.30
2018-01-12T08:03:08.423Z,4.30
2018-01-12T08:05:36.069Z,4.30
2018-01-12T08:08:04.448Z,4.40
2018-01-12T08:10:32.829Z,4.40
2018-01-12T08:13:00.479Z,4.40
2018-01-12T08:15:28.098Z,4.50
2018-01-12T08:17:56.505Z,4.50
2018-01-12T08:20:24.115Z,4.50
2018-01-12T08:22:51.725Z,4.50
2018-01-12T08:25:19.382Z,4.50
2018-01-12T08:27:46.997Z,4.50
2018-01-12T08:30:14.641Z,4.50
2018-01-12T08:32:42.290Z,4.50
2018-01-12T08:35:09.907Z,4.50
2018-01-12T08:37:37.568Z,4.60
2018-01-12T08:40:05.965Z,4.60
2018-01-12T08:42:33.580Z,4.50
2018-01-12T08:45:01.225Z,4.60
2018-01-12T08:47:29.609Z,4.60
2018-01-12T08:49:57.985Z,4.60
2018-01-12T08:52:25.629Z,4.50
2018-01-12T08:54:53.236Z,4.70
2018-01-12T08:57:20.853Z,4.80
2018-01-12T08:59:48.497Z,4.70
2018-01-12T09:02:16.889Z,4.70
2018-01-12T09:04:45.268Z,4.60
2018-01-12T09:07:12.924Z,4.50
2018-01-12T09:09:40.533Z,4.60
2018-01-12T09:12:08.906Z,4.80
2018-01-12T09:14:48.287Z,4.70
2018-01-12T09:17:30.783Z,4.80
2018-01-12T09:20:10.422Z,4.80
2018-01-12T09:22:49.256Z,4.80
2018-01-12T09:25:23.782Z,4.80
2018-01-12T09:27:51.400Z,4.90
2018-01-12T09:30:19.789Z,4.90
2018-01-12T09:32:50.044Z,5.00
2018-01-12T09:35:17.673Z,4.90
2018-01-12T09:37:45.283Z,4.90
2018-01-12T09:43:05.916Z,4.90
2018-01-12T09:45:34.341Z,4.90
2018-01-12T09:48:13.804Z,4.80
2018-01-12T09:50:41.456Z,5.00
2018-01-12T09:53:09.082Z,5.00
2018-01-12T09:55:36.688Z,5.00
2018-01-12T09:58:05.101Z,4.90
2018-01-12T10:00:44.690Z,4.90
2018-01-12T10:03:12.341Z,4.90
2018-01-12T10:05:39.965Z,4.80
2018-01-12T10:08:15.487Z,4.70
2018-01-12T10:10:43.109Z,4.70
2018-01-12T10:13:11.497Z,4.90
2018-01-12T10:15:39.157Z,4.80
2018-01-12T10:18:12.583Z,4.90
2018-01-12T10:20:40.993Z,4.90
2018-01-12T10:23:09.412Z,4.90
2018-01-12T10:25:37.033Z,4.90
2018-01-12T10:28:04.678Z,4.90
2018-01-12T10:31:03.528Z,5.00
2018-01-12T10:36:39.977Z,5.00
2018-01-12T10:39:19.421Z,5.00
2018-01-12T10:41:58.929Z,5.00
2018-01-12T10:44:26.575Z,4.90
2018-01-12T10:50:18.590Z,4.80
2018-01-12T10:52:50.953Z,4.80
2018-01-12T10:55:18.613Z,4.90
2018-01-12T10:57:46.233Z,4.90
2018-01-12T11:00:32.295Z,4.90
2018-01-12T11:02:59.925Z,4.90
2018-01-12T11:05:28.408Z,4.80
2018-01-12T11:07:56.063Z,4.80
2018-01-12T11:10:23.686Z,4.80
2018-01-12T11:12:51.645Z,4.80
2018-01-12T11:15:19.260Z,4.90
2018-01-12T11:17:46.876Z,4.80
2018-01-12T11:20:14.525Z,4.80
2018-01-12T11:22:42.140Z,4.80
2018-01-12T11:25:09.785Z,4.80
2018-01-12T11:27:37.404Z,4.80
2018-01-12T11:30:05.789Z,4.80
2018-01-12T11:32:34.212Z,4.80
2018-01-12T11:35:01.846Z,4.80
2018-01-12T11:37:30.258Z,4.80
2018-01-12T11:39:57.882Z,4.80
2018-01-12T11:42:25.501Z,4.90
2018-01-12T11:44:53.942Z,4.60
2018-01-12T11:47:21.561Z,4.60
2018-01-12T11:49:49.982Z,4.70
2018-01-12T11:52:17.613Z,4.60
2018-01-12T11:54:45.231Z,4.70
2018-01-12T11:57:12.880Z,4.80
2018-01-12T11:59:41.265Z,4.70
2018-01-12T12:02:09.698Z,4.70
2018-01-12T12:04:37.317Z,4.70
2018-01-12T12:07:05.708Z,4.60
2018-01-12T12:09:33.456Z,4.50
2018-01-12T12:12:01.080Z,4.50
2018-01-12T12:14:29.497Z,4.40
2018-01-12T12:16:57.121Z,4.40
2018-01-12T12:19:24.749Z,4.30
2018-01-12T12:21:52.394Z,4.50
2018-01-12T12:24:20.021Z,4.50
2018-01-12T12:26:48.281Z,4.60
2018-01-12T12:29:15.898Z,4.70
2018-01-12T12:31:43.512Z,4.70
2018-01-12T12:34:11.170Z,4.70
2018-01-12T12:36:39.596Z,4.50
2018-01-12T12:39:07.285Z,4.50
2018-01-12T12:41:34.941Z,4.60
2018-01-12T12:44:02.599Z,4.60
2018-01-12T12:46:30.313Z,4.70
2018-01-12T12:48:57.925Z,4.70
2018-01-12T12:51:25.590Z,4.70
2018-01-12T12:53:53.206Z,4.80
2018-01-12T12:56:20.813Z,4.70
2018-01-12T12:58:48.465Z,4.70
2018-01-12T13:01:16.081Z,4.50
2018-01-12T13:03:43.734Z,4.50
2018-01-12T13:06:11.360Z,4.50
2018-01-12T13:08:39.742Z,4.40
2018-01-12T13:11:07.396Z,4.40
2018-01-12T13:13:35.057Z,4.50
2018-01-12T13:16:02.706Z,4.50
2018-01-12T13:18:30.324Z,4.40
2018-01-12T13:20:57.980Z,4.40
2018-01-12T13:23:25.617Z,4.50
2018-01-12T13:25:53.234Z,4.50
2018-01-12T13:28:20.901Z,4.40
2018-01-12T13:30:48.522Z,4.40
2018-01-12T13:33:16.920Z,4.30
2018-01-12T13:35:44.573Z,4.30
2018-01-12T13:38:12.181Z,4.40
2018-01-12T13:40:39.829Z,4.50
2018-01-12T13:43:08.205Z,4.50
2018-01-12T13:45:35.833Z,4.50
2018-01-12T13:48:03.485Z,4.50
2018-01-12T13:50:31.105Z,4.40
2018-01-12T13:52:58.754Z,4.40
2018-01-12T13:55:26.378Z,4.30
2018-01-12T13:57:54.000Z,4.30
2018-01-12T14:00:21.655Z,4.30
2018-01-12T14:02:49.270Z,4.00
2018-01-12T14:05:16.917Z,4.00
2018-01-12T14:07:44.534Z,4.10
2018-01-12T14:10:12.153Z,4.10
2018-01-12T14:12:39.870Z,4.20
2018-01-12T14:15:07.485Z,4.20
2018-01-12T14:17:35.917Z,4.10
2018-01-12T14:20:03.552Z,4.10
2018-01-12T14:22:31.165Z,4.00
2018-01-12T14:24:58.825Z,4.10
2018-01-12T14:27:26.481Z,4.20
2018-01-12T14:29:54.898Z,4.10
2018-01-12T14:32:22.517Z,4.00
2018-01-12T14:34:50.133Z,3.90
2018-01-12T14:37:18.548Z,3.70
2018-01-12T14:39:46.242Z,3.70
2018-01-12T14:42:13.893Z,3.70
2018-01-12T14:44:41.509Z,3.70
2018-01-12T14:47:09.162Z,3.70
2018-01-12T14:49:36.809Z,3.60
2018-01-12T14:52:04.420Z,3.60
2018-01-12T14:54:32.077Z,3.60
2018-01-12T14:56:59.702Z,3.60
2018-01-12T14:59:28.091Z,3.40
2018-01-12T15:01:56.509Z,3.30
2018-01-12T15:04:24.190Z,3.30
2018-01-12T15:06:51.833Z,3.20
2018-01-12T15:09:20.221Z,3.30
2018-01-12T15:11:47.841Z,3.20
2018-01-12T15:14:15.507Z,3.20
2018-01-12T15:16:43.129Z,3.30
2018-01-12T15:19:10.778Z,3.30
2018-01-12T15:21:38.410Z,3.30
2018-01-12T15:24:06.130Z,3.30
2018-01-12T15:26:33.806Z,3.30
2018-01-12T15:29:01.426Z,3.30
2018-01-12T15:31:29.836Z,3.20
2018-01-12T15:33:57.457Z,3.10
2018-01-12T15:36:25.073Z,3.20
2018-01-12T15:38:53.486Z,3.20
2018-01-12T15:41:21.118Z,3.10
2018-01-12T15:43:48.765Z,3.20
2018-01-12T15:46:16.392Z,3.20
2018-01-12T15:48:44.111Z,3.20
2018-01-12T15:51:11.766Z,3.30
2018-01-12T15:53:39.382Z,3.30
2018-01-12T15:56:07.044Z,3.30
2018-01-12T15:58:34.661Z,3.20
2018-01-12T16:01:03.037Z,3.30
2018-01-12T16:03:30.676Z,3.30
2018-01-12T16:05:58.303Z,3.30
2018-01-12T16:08:26.714Z,3.30
2018-01-12T16:10:54.332Z,3.20
2018-01-12T16:13:21.977Z,3.30
2018-01-12T16:15:49.624Z,3.20
2018-01-12T16:18:17.241Z,3.30
2018-01-12T16:20:44.885Z,3.30
2018-01-12T16:23:12.497Z,3.30
2018-01-12T16:25:40.113Z,3.40
2018-01-12T16:28:07.757Z,3.30
2018-01-12T16:30:35.404Z,3.20
2018-01-12T16:33:03.056Z,3.20
2018-01-12T16:35:30.754Z,3.10
2018-01-12T16:37:58.373Z,3.10
2018-01-12T16:40:26.782Z,3.10
2018-01-12T16:42:54.401Z,3.10
2018-01-12T16:45:22.040Z,3.10
2018-01-12T16:47:49.658Z,3.00
2018-01-12T16:50:17.279Z,3.00
2018-01-12T16:52:44.924Z,3.10
2018-01-12T16:55:12.536Z,3.20
2018-01-12T16:57:40.569Z,3.10
2018-01-12T17:00:08.229Z,3.10
2018-01-12T17:02:35.845Z,3.10
2018-01-12T17:05:04.264Z,3.20
2018-01-12T17:07:31.877Z,3.10
2018-01-12T17:09:59.516Z,3.20
2018-01-12T17:12:27.134Z,3.10
2018-01-12T17:14:54.752Z,3.10
2018-01-12T17:17:22.394Z,3.20
2018-01-12T17:19:50.001Z,3.20
2018-01-12T17:22:17.653Z,3.20
2018-01-12T17:24:46.029Z,3.20
2018-01-12T17:27:13.664Z,3.10
2018-01-12T17:29:41.308Z,3.20
2018-01-12T17:32:08.924Z,3.20
2018-01-12T17:34:39.459Z,3.20
2018-01-12T17:37:07.085Z,3.20
2018-01-12T17:39:34.709Z,3.20
2018-01-12T17:42:02.354Z,3.20
2018-01-12T17:44:30.195Z,3.20
2018-01-12T17:46:57.985Z,3.20
2018-01-12T17:49:25.950Z,3.30
2018-01-12T17:51:54.423Z,3.20
2018-01-12T17:54:22.077Z,3.10
2018-01-12T17:56:49.687Z,3.20
2018-01-12T17:59:17.382Z,3.30
2018-01-12T18:01:45.010Z,3.10
2018-01-12T18:04:12.625Z,3.10
2018-01-12T18:06:41.042Z,3.00
2018-01-12T18:09:08.657Z,2.90
2018-01-12T18:11:36.304Z,3.00
2018-01-12T18:14:03.924Z,2.90
2018-01-12T18:16:31.573Z,2.80
2018-01-12T18:18:59.260Z,2.80
2018-01-12T18:21:26.869Z,2.70
2018-01-12T18:23:55.281Z,2.80
2018-01-12T18:26:22.898Z,2.80
2018-01-12T18:28:50.508Z,2.80
2018-01-12T18:31:18.930Z,2.90
2018-01-12T18:33:46.540Z,2.90
2018-01-12T18:36:16.652Z,2.90
2018-01-12T18:38:44.381Z,2.90
2018-01-12T18:41:12.789Z,2.90
2018-01-12T18:43:40.430Z,2.80
2018-01-12T18:46:08.056Z,2.90
2018-01-12T18:48:35.713Z,2.90
2018-01-12T18:51:03.329Z,2.90
2018-01-12T18:53:30.952Z,3.00
2018-01-12T18:55:59.365Z,2.90
2018-01-12T18:58:27.008Z,2.90
2018-01-12T19:00:55.428Z,3.00
2018-01-12T19:03:33.317Z,2.90
2018-01-12T19:06:01.731Z,2.90
2018-01-12T19:08:29.355Z,2.80
2018-01-12T19:10:56.972Z,2.90
2018-01-12T19:13:24.741Z,2.90
2018-01-12T19:15:52.363Z,2.80
2018-01-12T19:18:20.037Z,2.90
2018-01-12T19:20:47.657Z,2.90
2018-01-12T19:23:16.033Z,2.80
2018-01-12T19:25:43.681Z,2.70
2018-01-12T19:28:11.292Z,2.80
2018-01-12T19:30:42.441Z,2.80
2018-01-12T19:33:10.821Z,2.80
2018-01-12T19:35:38.445Z,2.70
2018-01-12T19:38:06.091Z,2.70
2018-01-12T19:40:34.480Z,2.80
2018-01-12T19:43:02.906Z,2.90
2018-01-12T19:45:30.525Z,2.90
2018-01-12T19:47:58.157Z,3.00
2018-01-12T19:50:25.809Z,3.00
2018-01-12T19:52:54.198Z,2.90
2018-01-12T19:55:22.592Z,3.00
2018-01-12T19:57:51.010Z,3.00
2018-01-12T20:00:18.625Z,3.00
2018-01-12T20:02:46.247Z,3.00
2018-01-12T20:05:13.928Z,2.90
2018-01-12T20:07:41.537Z,2.90
2018-01-12T20:10:09.163Z,3.00
2018-01-12T20:12:36.813Z,2.90
2018-01-12T20:15:05.193Z,2.80
2018-01-12T20:17:32.840Z,2.80
2018-01-12T20:20:00.461Z,2.80
2018-01-12T20:22:28.873Z,3.00
2018-01-12T20:24:56.523Z,2.90
2018-01-12T20:27:24.972Z,3.00
2018-01-12T20:29:52.641Z,3.00
2018-01-12T20:32:20.264Z,3.10
2018-01-12T20:34:48.648Z,3.00
2018-01-12T20:37:16.333Z,2.90
2018-01-12T20:39:44.705Z,3.00
2018-01-12T20:42:12.574Z,2.90
2018-01-12T20:44:40.477Z,3.00
2018-01-12T20:47:09.149Z,2.90
2018-01-12T20:49:36.964Z,2.80
2018-01-12T20:52:04.598Z,2.90
2018-01-12T20:54:32.245Z,2.80
2018-01-12T20:56:59.861Z,2.90
2018-01-12T20:59:27.481Z,3.00
2018-01-12T21:01:55.128Z,3.00
2018-01-12T21:04:22.758Z,3.00
2018-01-12T21:06:50.413Z,2.90
2018-01-12T21:09:18.020Z,2.90
2018-01-12T21:11:45.625Z,2.90
2018-01-12T21:14:14.042Z,2.80
2018-01-12T21:16:42.266Z,2.80
2018-01-12T21:19:10.065Z,2.80
2018-01-12T21:21:37.676Z,2.90
2018-01-12T21:24:05.340Z,3.00
2018-01-12T21:26:33.861Z,2.90
2018-01-12T21:29:01.595Z,2.90
2018-01-12T21:31:29.286Z,2.90
2018-01-12T21:33:56.933Z,2.80
2018-01-12T21:36:24.597Z,2.80
2018-01-12T21:38:52.246Z,2.90
2018-01-12T21:41:19.901Z,2.90
2018-01-12T21:43:47.565Z,2.80
2018-01-12T21:46:19.587Z,2.70
2018-01-12T21:48:48.633Z,2.70
2018-01-12T21:51:16.628Z,2.70
2018-01-12T21:53:44.778Z,2.70
2018-01-12T21:56:12.445Z,2.70
2018-01-12T21:58:40.546Z,2.60
2018-01-12T22:01:08.675Z,2.70
2018-01-12T22:03:36.691Z,2.60
2018-01-12T22:06:04.700Z,2.70
2018-01-12T22:08:37.596Z,2.60
2018-01-12T22:11:05.269Z,2.70
2018-01-12T22:13:32.928Z,2.60
2018-01-12T22:16:00.802Z,2.60
2018-01-12T22:18:28.499Z,2.60
2018-01-12T22:20:56.153Z,2.60
2018-01-12T22:23:23.772Z,2.60
2018-01-12T22:25:52.630Z,2.60
2018-01-12T22:28:20.448Z,2.60
2018-01-12T22:30:49.348Z,2.60
2018-01-12T22:33:17.777Z,2.70
2018-01-12T22:35:45.401Z,2.60
2018-01-12T22:38:13.769Z,2.80
2018-01-12T22:40:41.421Z,2.80
2018-01-12T22:43:09.272Z,2.80
2018-01-12T22:45:36.934Z,2.80
2018-01-12T22:48:04.561Z,2.80
2018-01-12T22:50:32.200Z,2.80
2018-01-12T22:52:59.818Z,2.80
2018-01-12T22:55:27.441Z,2.80
2018-01-12T22:57:55.853Z,2.80
2018-01-12T23:00:23.461Z,2.80
2018-01-12T23:02:51.104Z,2.90
2018-01-12T23:05:18.721Z,2.90
2018-01-12T23:07:46.349Z,2.80
2018-01-12T23:10:14.010Z,2.90
2018-01-12T23:12:41.645Z,2.90
2018-01-12T23:15:09.289Z,2.80
2018-01-12T23:17:36.901Z,2.90
2018-01-12T23:20:04.513Z,2.90
2018-01-12T23:22:32.165Z,2.80
2018-01-12T23:25:00.554Z,2.80
2018-01-12T23:27:28.961Z,2.90
2018-01-12T23:29:57.337Z,2.90
2018-01-12T23:32:24.977Z,2.90
2018-01-12T23:34:52.596Z,2.90
2018-01-12T23:37:20.996Z,2.90
2018-01-12T23:39:48.638Z,2.90
2018-01-12T23:42:16.256Z,2.90
2018-01-12T23:44:43.900Z,2.90
2018-01-12T23:47:12.280Z,2.80
2018-01-12T23:49:39.889Z,2.80
2018-01-12T23:52:07.546Z,2.90
2018-01-12T23:54:35.916Z,2.80
2018-01-12T23:57:03.563Z,2.70
2018-01-12T23:59:31.188Z,2.80
